sensor_id;sensor_type;location;lat;lon;timestamp;P1;durP1;ratioP1;P2;durP2;ratioP2
14169;SDS011;63889;50.596;8.690;2024-01-30T00:01:04;27.20;;;11.02;;
14169;SDS011;63889;50.596;8.690;2024-01-30T00:03:30;22.77;;;9.73;;
14169;SDS011;63889;50.596;8.690;2024-01-30T00:05:56;24.02;;;10.73;;
14169;SDS011;63889;50.596;8.690;2024-01-30T00:08:21;24.58;;;10.50;;
14169;SDS011;63889;50.596;8.690;2024-01-30T00:10:47;22.30;;;9.95;;
14169;SDS011;63889;50.596;8.690;2024-01-30T00:13:12;20.73;;;9.90;;
14169;SDS011;63889;50.596;8.690;2024-01-30T00:15:39;22.65;;;10.05;;
14169;SDS011;63889;50.596;8.690;2024-01-30T00:18:04;21.67;;;9.40;;
14169;SDS011;63889;50.596;8.690;2024-01-30T00:20:30;24.42;;;10.18;;
14169;SDS011;63889;50.596;8.690;2024-01-30T00:22:55;21.45;;;9.75;;
14169;SDS011;63889;50.596;8.690;2024-01-30T00:25:21;16.65;;;8.95;;
14169;SDS011;63889;50.596;8.690;2024-01-30T00:27:46;18.92;;;9.80;;
14169;SDS011;63889;50.596;8.690;2024-01-30T00:30:12;18.95;;;9.20;;
14169;SDS011;63889;50.596;8.690;2024-01-30T00:32:38;20.48;;;10.23;;
14169;SDS011;63889;50.596;8.690;2024-01-30T00:35:03;17.77;;;9.20;;
14169;SDS011;63889;50.596;8.690;2024-01-30T00:37:29;22.88;;;9.60;;
14169;SDS011;63889;50.596;8.690;2024-01-30T00:39:56;20.40;;;9.38;;
14169;SDS011;63889;50.596;8.690;2024-01-30T00:42:22;19.52;;;9.15;;
14169;SDS011;63889;50.596;8.690;2024-01-30T00:44:48;23.23;;;10.50;;
14169;SDS011;63889;50.596;8.690;2024-01-30T00:47:14;22.77;;;10.30;;
14169;SDS011;63889;50.596;8.690;2024-01-30T00:49:40;20.88;;;9.00;;
14169;SDS011;63889;50.596;8.690;2024-01-30T00:52:05;21.90;;;10.10;;
14169;SDS011;63889;50.596;8.690;2024-01-30T00:54:31;18.85;;;9.95;;
14169;SDS011;63889;50.596;8.690;2024-01-30T00:56:56;22.02;;;10.85;;
14169;SDS011;63889;50.596;8.690;2024-01-30T00:59:22;23.95;;;11.30;;
14169;SDS011;63889;50.596;8.690;2024-01-30T01:01:47;25.85;;;10.00;;
14169;SDS011;63889;50.596;8.690;2024-01-30T01:04:13;22.55;;;9.55;;
14169;SDS011;63889;50.596;8.690;2024-01-30T01:06:39;25.15;;;10.30;;
14169;SDS011;63889;50.596;8.690;2024-01-30T01:09:04;22.23;;;9.55;;
14169;SDS011;63889;50.596;8.690;2024-01-30T01:11:30;19.27;;;10.55;;
14169;SDS011;63889;50.596;8.690;2024-01-30T01:13:56;22.27;;;10.52;;
14169;SDS011;63889;50.596;8.690;2024-01-30T01:16:21;23.95;;;10.20;;
14169;SDS011;63889;50.596;8.690;2024-01-30T01:18:47;20.73;;;10.32;;
14169;SDS011;63889;50.596;8.690;2024-01-30T01:21:12;22.45;;;10.02;;
14169;SDS011;63889;50.596;8.690;2024-01-30T01:23:38;21.73;;;10.00;;
14169;SDS011;63889;50.596;8.690;2024-01-30T01:26:04;24.45;;;9.45;;
14169;SDS011;63889;50.596;8.690;2024-01-30T01:28:30;18.30;;;9.50;;
14169;SDS011;63889;50.596;8.690;2024-01-30T01:30:56;24.35;;;10.05;;
14169;SDS011;63889;50.596;8.690;2024-01-30T01:33:24;26.23;;;10.27;;
14169;SDS011;63889;50.596;8.690;2024-01-30T01:35:49;21.73;;;9.32;;
14169;SDS011;63889;50.596;8.690;2024-01-30T01:38:15;25.75;;;10.43;;
14169;SDS011;63889;50.596;8.690;2024-01-30T01:40:41;21.65;;;10.45;;
14169;SDS011;63889;50.596;8.690;2024-01-30T01:43:06;23.85;;;9.98;;
14169;SDS011;63889;50.596;8.690;2024-01-30T01:45:32;27.45;;;10.68;;
14169;SDS011;63889;50.596;8.690;2024-01-30T01:47:57;26.25;;;10.27;;
14169;SDS011;63889;50.596;8.690;2024-01-30T01:50:23;21.63;;;9.73;;
14169;SDS011;63889;50.596;8.690;2024-01-30T01:52:49;26.27;;;10.50;;
14169;SDS011;63889;50.596;8.690;2024-01-30T01:55:15;20.10;;;9.45;;
14169;SDS011;63889;50.596;8.690;2024-01-30T01:57:46;21.45;;;9.35;;
14169;SDS011;63889;50.596;8.690;2024-01-30T02:00:12;18.85;;;10.15;;
14169;SDS011;63889;50.596;8.690;2024-01-30T02:02:39;21.35;;;9.95;;
14169;SDS011;63889;50.596;8.690;2024-01-30T02:05:04;21.27;;;9.75;;
14169;SDS011;63889;50.596;8.690;2024-01-30T02:07:30;23.15;;;9.93;;
14169;SDS011;63889;50.596;8.690;2024-01-30T02:09:56;22.42;;;10.65;;
14169;SDS011;63889;50.596;8.690;2024-01-30T02:12:21;25.50;;;10.93;;
14169;SDS011;63889;50.596;8.690;2024-01-30T02:14:47;23.83;;;10.75;;
14169;SDS011;63889;50.596;8.690;2024-01-30T02:17:14;18.75;;;9.73;;
14169;SDS011;63889;50.596;8.690;2024-01-30T02:19:40;24.33;;;10.38;;
14169;SDS011;63889;50.596;8.690;2024-01-30T02:22:06;24.67;;;9.88;;
14169;SDS011;63889;50.596;8.690;2024-01-30T02:24:32;19.80;;;9.45;;
14169;SDS011;63889;50.596;8.690;2024-01-30T02:26:58;19.35;;;10.43;;
14169;SDS011;63889;50.596;8.690;2024-01-30T02:29:23;22.85;;;10.85;;
14169;SDS011;63889;50.596;8.690;2024-01-30T02:31:49;25.25;;;9.57;;
14169;SDS011;63889;50.596;8.690;2024-01-30T02:34:15;17.83;;;9.55;;
14169;SDS011;63889;50.596;8.690;2024-01-30T02:36:44;21.92;;;9.98;;
14169;SDS011;63889;50.596;8.690;2024-01-30T02:39:09;24.67;;;9.60;;
14169;SDS011;63889;50.596;8.690;2024-01-30T02:41:35;27.65;;;11.60;;
14169;SDS011;63889;50.596;8.690;2024-01-30T02:44:01;21.10;;;8.88;;
14169;SDS011;63889;50.596;8.690;2024-01-30T02:46:28;23.23;;;10.88;;
14169;SDS011;63889;50.596;8.690;2024-01-30T02:48:54;19.08;;;9.07;;
14169;SDS011;63889;50.596;8.690;2024-01-30T02:51:19;20.63;;;9.55;;
14169;SDS011;63889;50.596;8.690;2024-01-30T02:53:45;21.17;;;10.70;;
14169;SDS011;63889;50.596;8.690;2024-01-30T02:56:10;20.08;;;9.00;;
14169;SDS011;63889;50.596;8.690;2024-01-30T02:58:38;17.98;;;9.07;;
14169;SDS011;63889;50.596;8.690;2024-01-30T03:01:04;19.77;;;8.98;;
14169;SDS011;63889;50.596;8.690;2024-01-30T03:03:30;21.27;;;9.52;;
14169;SDS011;63889;50.596;8.690;2024-01-30T03:05:56;18.13;;;9.55;;
14169;SDS011;63889;50.596;8.690;2024-01-30T03:08:22;22.13;;;9.88;;
14169;SDS011;63889;50.596;8.690;2024-01-30T03:10:47;17.33;;;8.35;;
14169;SDS011;63889;50.596;8.690;2024-01-30T03:13:13;18.13;;;9.25;;
14169;SDS011;63889;50.596;8.690;2024-01-30T03:15:39;20.15;;;9.52;;
14169;SDS011;63889;50.596;8.690;2024-01-30T03:18:04;15.07;;;8.40;;
14169;SDS011;63889;50.596;8.690;2024-01-30T03:20:30;22.40;;;9.60;;
14169;SDS011;63889;50.596;8.690;2024-01-30T03:22:56;24.05;;;8.57;;
14169;SDS011;63889;50.596;8.690;2024-01-30T03:25:22;19.65;;;8.93;;
14169;SDS011;63889;50.596;8.690;2024-01-30T03:27:48;24.17;;;9.63;;
14169;SDS011;63889;50.596;8.690;2024-01-30T03:30:13;23.98;;;8.88;;
14169;SDS011;63889;50.596;8.690;2024-01-30T03:32:39;18.60;;;8.77;;
14169;SDS011;63889;50.596;8.690;2024-01-30T03:35:05;18.20;;;8.15;;
14169;SDS011;63889;50.596;8.690;2024-01-30T03:37:31;17.15;;;8.52;;
14169;SDS011;63889;50.596;8.690;2024-01-30T03:39:56;16.77;;;8.45;;
14169;SDS011;63889;50.596;8.690;2024-01-30T03:42:22;17.80;;;7.82;;
14169;SDS011;63889;50.596;8.690;2024-01-30T03:44:48;17.52;;;7.68;;
14169;SDS011;63889;50.596;8.690;2024-01-30T03:47:13;15.77;;;8.07;;
14169;SDS011;63889;50.596;8.690;2024-01-30T03:49:39;17.65;;;8.65;;
14169;SDS011;63889;50.596;8.690;2024-01-30T03:52:05;15.60;;;8.25;;
14169;SDS011;63889;50.596;8.690;2024-01-30T03:54:30;15.10;;;7.80;;
14169;SDS011;63889;50.596;8.690;2024-01-30T03:56:56;18.02;;;7.88;;
14169;SDS011;63889;50.596;8.690;2024-01-30T03:59:21;16.60;;;8.23;;
14169;SDS011;63889;50.596;8.690;2024-01-30T04:01:49;15.50;;;8.15;;
14169;SDS011;63889;50.596;8.690;2024-01-30T04:04:16;17.67;;;8.45;;
14169;SDS011;63889;50.596;8.690;2024-01-30T04:06:42;14.70;;;7.97;;
14169;SDS011;63889;50.596;8.690;2024-01-30T04:09:08;19.90;;;8.63;;
14169;SDS011;63889;50.596;8.690;2024-01-30T04:11:34;14.65;;;8.02;;
14169;SDS011;63889;50.596;8.690;2024-01-30T04:13:59;24.52;;;8.52;;
14169;SDS011;63889;50.596;8.690;2024-01-30T04:16:25;18.60;;;8.52;;
14169;SDS011;63889;50.596;8.690;2024-01-30T04:18:51;21.45;;;9.32;;
14169;SDS011;63889;50.596;8.690;2024-01-30T04:21:17;21.02;;;9.95;;
14169;SDS011;63889;50.596;8.690;2024-01-30T04:23:42;23.23;;;8.95;;
14169;SDS011;63889;50.596;8.690;2024-01-30T04:26:08;22.05;;;9.90;;
14169;SDS011;63889;50.596;8.690;2024-01-30T04:28:34;19.92;;;8.98;;
14169;SDS011;63889;50.596;8.690;2024-01-30T04:30:59;18.20;;;8.98;;
14169;SDS011;63889;50.596;8.690;2024-01-30T04:33:25;20.23;;;9.55;;
14169;SDS011;63889;50.596;8.690;2024-01-30T04:35:50;21.75;;;9.63;;
14169;SDS011;63889;50.596;8.690;2024-01-30T04:38:16;16.48;;;9.30;;
14169;SDS011;63889;50.596;8.690;2024-01-30T04:40:42;19.13;;;8.55;;
14169;SDS011;63889;50.596;8.690;2024-01-30T04:43:08;18.02;;;8.57;;
14169;SDS011;63889;50.596;8.690;2024-01-30T04:45:33;23.23;;;8.95;;
14169;SDS011;63889;50.596;8.690;2024-01-30T04:47:59;24.13;;;9.68;;
14169;SDS011;63889;50.596;8.690;2024-01-30T04:50:24;17.05;;;8.98;;
14169;SDS011;63889;50.596;8.690;2024-01-30T04:52:51;21.02;;;9.07;;
14169;SDS011;63889;50.596;8.690;2024-01-30T04:55:17;20.42;;;8.82;;
14169;SDS011;63889;50.596;8.690;2024-01-30T04:57:43;24.88;;;8.73;;
14169;SDS011;63889;50.596;8.690;2024-01-30T05:00:08;18.38;;;7.97;;
14169;SDS011;63889;50.596;8.690;2024-01-30T05:02:34;15.43;;;7.80;;
14169;SDS011;63889;50.596;8.690;2024-01-30T05:05:00;21.08;;;7.28;;
14169;SDS011;63889;50.596;8.690;2024-01-30T05:07:25;19.60;;;8.10;;
14169;SDS011;63889;50.596;8.690;2024-01-30T05:09:51;21.88;;;7.97;;
14169;SDS011;63889;50.596;8.690;2024-01-30T05:12:17;16.50;;;8.38;;
14169;SDS011;63889;50.596;8.690;2024-01-30T05:14:42;19.45;;;8.15;;
14169;SDS011;63889;50.596;8.690;2024-01-30T05:17:08;15.65;;;7.72;;
14169;SDS011;63889;50.596;8.690;2024-01-30T05:19:35;22.67;;;8.52;;
14169;SDS011;63889;50.596;8.690;2024-01-30T05:22:00;15.95;;;7.93;;
14169;SDS011;63889;50.596;8.690;2024-01-30T05:24:26;17.17;;;9.23;;
14169;SDS011;63889;50.596;8.690;2024-01-30T05:26:51;25.20;;;9.60;;
14169;SDS011;63889;50.596;8.690;2024-01-30T05:29:17;21.83;;;9.65;;
14169;SDS011;63889;50.596;8.690;2024-01-30T05:31:43;18.17;;;8.73;;
14169;SDS011;63889;50.596;8.690;2024-01-30T05:34:08;18.90;;;8.63;;
14169;SDS011;63889;50.596;8.690;2024-01-30T05:36:34;22.05;;;9.27;;
14169;SDS011;63889;50.596;8.690;2024-01-30T05:39:00;17.70;;;8.45;;
14169;SDS011;63889;50.596;8.690;2024-01-30T05:41:25;21.58;;;8.75;;
14169;SDS011;63889;50.596;8.690;2024-01-30T05:43:54;22.00;;;9.30;;
14169;SDS011;63889;50.596;8.690;2024-01-30T05:46:19;20.98;;;9.27;;
14169;SDS011;63889;50.596;8.690;2024-01-30T05:48:45;17.85;;;8.23;;
14169;SDS011;63889;50.596;8.690;2024-01-30T05:51:10;18.50;;;7.80;;
14169;SDS011;63889;50.596;8.690;2024-01-30T05:53:36;19.27;;;8.38;;
14169;SDS011;63889;50.596;8.690;2024-01-30T05:56:02;18.15;;;7.93;;
14169;SDS011;63889;50.596;8.690;2024-01-30T05:58:28;21.38;;;8.98;;
14169;SDS011;63889;50.596;8.690;2024-01-30T06:00:54;19.40;;;8.07;;
14169;SDS011;63889;50.596;8.690;2024-01-30T06:03:19;18.13;;;8.77;;
14169;SDS011;63889;50.596;8.690;2024-01-30T06:05:46;16.20;;;9.27;;
14169;SDS011;63889;50.596;8.690;2024-01-30T06:08:11;25.83;;;11.07;;
14169;SDS011;63889;50.596;8.690;2024-01-30T06:10:37;22.08;;;10.07;;
14169;SDS011;63889;50.596;8.690;2024-01-30T06:13:02;14.05;;;8.52;;
14169;SDS011;63889;50.596;8.690;2024-01-30T06:15:28;19.63;;;9.55;;
14169;SDS011;63889;50.596;8.690;2024-01-30T06:17:54;21.33;;;8.95;;
14169;SDS011;63889;50.596;8.690;2024-01-30T06:20:20;19.02;;;8.38;;
14169;SDS011;63889;50.596;8.690;2024-01-30T06:22:46;12.60;;;6.88;;
14169;SDS011;63889;50.596;8.690;2024-01-30T06:25:11;15.13;;;7.85;;
14169;SDS011;63889;50.596;8.690;2024-01-30T06:27:37;16.70;;;6.90;;
14169;SDS011;63889;50.596;8.690;2024-01-30T06:30:03;18.55;;;8.02;;
14169;SDS011;63889;50.596;8.690;2024-01-30T06:32:30;14.98;;;7.10;;
14169;SDS011;63889;50.596;8.690;2024-01-30T06:34:59;17.55;;;8.02;;
14169;SDS011;63889;50.596;8.690;2024-01-30T06:37:25;15.60;;;7.78;;
14169;SDS011;63889;50.596;8.690;2024-01-30T06:39:51;17.80;;;8.30;;
14169;SDS011;63889;50.596;8.690;2024-01-30T06:42:17;18.48;;;8.43;;
14169;SDS011;63889;50.596;8.690;2024-01-30T06:44:43;18.88;;;8.80;;
14169;SDS011;63889;50.596;8.690;2024-01-30T06:47:09;23.95;;;9.48;;
14169;SDS011;63889;50.596;8.690;2024-01-30T06:49:35;27.27;;;10.73;;
14169;SDS011;63889;50.596;8.690;2024-01-30T06:52:03;25.40;;;9.80;;
14169;SDS011;63889;50.596;8.690;2024-01-30T06:54:32;27.88;;;10.30;;
14169;SDS011;63889;50.596;8.690;2024-01-30T06:56:58;25.92;;;9.52;;
14169;SDS011;63889;50.596;8.690;2024-01-30T06:59:24;17.80;;;8.70;;
14169;SDS011;63889;50.596;8.690;2024-01-30T07:01:49;18.55;;;9.60;;
14169;SDS011;63889;50.596;8.690;2024-01-30T07:04:15;23.00;;;9.38;;
14169;SDS011;63889;50.596;8.690;2024-01-30T07:06:41;16.98;;;8.02;;
14169;SDS011;63889;50.596;8.690;2024-01-30T07:09:07;21.38;;;8.95;;
14169;SDS011;63889;50.596;8.690;2024-01-30T07:11:36;18.48;;;8.48;;
14169;SDS011;63889;50.596;8.690;2024-01-30T07:14:01;15.90;;;7.88;;
14169;SDS011;63889;50.596;8.690;2024-01-30T07:16:30;23.05;;;9.02;;
14169;SDS011;63889;50.596;8.690;2024-01-30T07:18:55;22.48;;;9.23;;
14169;SDS011;63889;50.596;8.690;2024-01-30T07:21:21;20.38;;;8.00;;
14169;SDS011;63889;50.596;8.690;2024-01-30T07:23:52;24.60;;;8.67;;
14169;SDS011;63889;50.596;8.690;2024-01-30T07:26:21;18.98;;;9.43;;
14169;SDS011;63889;50.596;8.690;2024-01-30T07:28:46;17.10;;;7.28;;
14169;SDS011;63889;50.596;8.690;2024-01-30T07:31:12;19.85;;;7.53;;
14169;SDS011;63889;50.596;8.690;2024-01-30T07:33:38;19.95;;;8.75;;
14169;SDS011;63889;50.596;8.690;2024-01-30T07:36:03;16.58;;;8.02;;
14169;SDS011;63889;50.596;8.690;2024-01-30T07:38:31;20.63;;;8.15;;
14169;SDS011;63889;50.596;8.690;2024-01-30T07:40:57;22.27;;;8.95;;
14169;SDS011;63889;50.596;8.690;2024-01-30T07:43:22;20.60;;;9.00;;
14169;SDS011;63889;50.596;8.690;2024-01-30T07:45:48;17.05;;;8.52;;
14169;SDS011;63889;50.596;8.690;2024-01-30T07:48:14;21.63;;;8.95;;
14169;SDS011;63889;50.596;8.690;2024-01-30T07:50:39;20.77;;;9.70;;
14169;SDS011;63889;50.596;8.690;2024-01-30T07:53:05;16.17;;;8.68;;
14169;SDS011;63889;50.596;8.690;2024-01-30T07:55:30;19.63;;;9.52;;
14169;SDS011;63889;50.596;8.690;2024-01-30T08:01:29;23.38;;;10.05;;
14169;SDS011;63889;50.596;8.690;2024-01-30T08:03:54;22.88;;;9.88;;
14169;SDS011;63889;50.596;8.690;2024-01-30T08:06:20;24.17;;;10.15;;
14169;SDS011;63889;50.596;8.690;2024-01-30T08:08:45;21.75;;;8.98;;
14169;SDS011;63889;50.596;8.690;2024-01-30T08:11:12;23.50;;;9.85;;
14169;SDS011;63889;50.596;8.690;2024-01-30T08:13:37;30.67;;;11.52;;
14169;SDS011;63889;50.596;8.690;2024-01-30T08:16:03;22.60;;;11.05;;
14169;SDS011;63889;50.596;8.690;2024-01-30T08:18:29;21.90;;;10.63;;
14169;SDS011;63889;50.596;8.690;2024-01-30T08:20:54;29.60;;;10.23;;
14169;SDS011;63889;50.596;8.690;2024-01-30T08:23:20;19.10;;;9.13;;
14169;SDS011;63889;50.596;8.690;2024-01-30T08:25:45;19.70;;;9.18;;
14169;SDS011;63889;50.596;8.690;2024-01-30T08:28:11;23.10;;;9.77;;
14169;SDS011;63889;50.596;8.690;2024-01-30T08:30:37;19.30;;;9.38;;
14169;SDS011;63889;50.596;8.690;2024-01-30T08:33:04;21.70;;;9.35;;
14169;SDS011;63889;50.596;8.690;2024-01-30T08:35:29;32.00;;;11.55;;
14169;SDS011;63889;50.596;8.690;2024-01-30T08:37:58;21.25;;;10.50;;
14169;SDS011;63889;50.596;8.690;2024-01-30T08:40:24;18.73;;;9.60;;
14169;SDS011;63889;50.596;8.690;2024-01-30T08:42:49;23.75;;;10.95;;
14169;SDS011;63889;50.596;8.690;2024-01-30T08:45:15;23.05;;;10.27;;
14169;SDS011;63889;50.596;8.690;2024-01-30T08:47:41;22.85;;;10.50;;
14169;SDS011;63889;50.596;8.690;2024-01-30T08:50:06;23.55;;;10.38;;
14169;SDS011;63889;50.596;8.690;2024-01-30T08:52:32;21.30;;;11.35;;
14169;SDS011;63889;50.596;8.690;2024-01-30T08:54:59;31.10;;;12.00;;
14169;SDS011;63889;50.596;8.690;2024-01-30T08:57:25;26.23;;;10.93;;
14169;SDS011;63889;50.596;8.690;2024-01-30T08:59:53;21.63;;;10.35;;
14169;SDS011;63889;50.596;8.690;2024-01-30T09:02:19;27.20;;;10.27;;
14169;SDS011;63889;50.596;8.690;2024-01-30T09:04:44;23.35;;;10.20;;
14169;SDS011;63889;50.596;8.690;2024-01-30T09:07:10;21.63;;;10.73;;
14169;SDS011;63889;50.596;8.690;2024-01-30T09:09:37;23.13;;;9.05;;
14169;SDS011;63889;50.596;8.690;2024-01-30T09:12:04;24.25;;;11.25;;
14169;SDS011;63889;50.596;8.690;2024-01-30T09:14:33;24.02;;;10.73;;
14169;SDS011;63889;50.596;8.690;2024-01-30T09:16:58;19.63;;;10.10;;
14169;SDS011;63889;50.596;8.690;2024-01-30T09:19:24;20.88;;;10.80;;
14169;SDS011;63889;50.596;8.690;2024-01-30T09:21:49;24.92;;;11.63;;
14169;SDS011;63889;50.596;8.690;2024-01-30T09:24:15;23.33;;;12.05;;
14169;SDS011;63889;50.596;8.690;2024-01-30T09:26:41;35.30;;;10.63;;
14169;SDS011;63889;50.596;8.690;2024-01-30T09:29:06;20.52;;;10.80;;
14169;SDS011;63889;50.596;8.690;2024-01-30T09:31:32;33.42;;;11.55;;
14169;SDS011;63889;50.596;8.690;2024-01-30T09:33:58;22.05;;;10.45;;
14169;SDS011;63889;50.596;8.690;2024-01-30T09:36:23;23.95;;;10.27;;
14169;SDS011;63889;50.596;8.690;2024-01-30T09:38:49;23.98;;;10.57;;
14169;SDS011;63889;50.596;8.690;2024-01-30T09:41:15;21.45;;;10.77;;
14169;SDS011;63889;50.596;8.690;2024-01-30T09:43:41;20.75;;;11.23;;
14169;SDS011;63889;50.596;8.690;2024-01-30T09:46:13;23.08;;;10.85;;
14169;SDS011;63889;50.596;8.690;2024-01-30T09:48:41;20.20;;;11.13;;
14169;SDS011;63889;50.596;8.690;2024-01-30T09:51:08;22.20;;;10.90;;
14169;SDS011;63889;50.596;8.690;2024-01-30T09:53:35;25.42;;;10.27;;
14169;SDS011;63889;50.596;8.690;2024-01-30T09:56:02;25.60;;;10.50;;
14169;SDS011;63889;50.596;8.690;2024-01-30T09:58:28;22.83;;;10.65;;
14169;SDS011;63889;50.596;8.690;2024-01-30T10:00:53;19.98;;;9.95;;
14169;SDS011;63889;50.596;8.690;2024-01-30T10:03:19;23.73;;;10.93;;
14169;SDS011;63889;50.596;8.690;2024-01-30T10:05:48;19.65;;;10.30;;
14169;SDS011;63889;50.596;8.690;2024-01-30T10:08:19;20.52;;;11.05;;
14169;SDS011;63889;50.596;8.690;2024-01-30T10:10:46;31.52;;;14.35;;
14169;SDS011;63889;50.596;8.690;2024-01-30T10:13:12;33.17;;;11.20;;
14169;SDS011;63889;50.596;8.690;2024-01-30T10:15:37;20.92;;;10.02;;
14169;SDS011;63889;50.596;8.690;2024-01-30T10:18:04;21.58;;;10.60;;
14169;SDS011;63889;50.596;8.690;2024-01-30T10:20:31;24.77;;;10.57;;
14169;SDS011;63889;50.596;8.690;2024-01-30T10:22:57;21.42;;;10.98;;
14169;SDS011;63889;50.596;8.690;2024-01-30T10:25:25;23.75;;;11.20;;
14169;SDS011;63889;50.596;8.690;2024-01-30T10:27:54;24.60;;;11.40;;
14169;SDS011;63889;50.596;8.690;2024-01-30T10:30:20;24.13;;;10.85;;
14169;SDS011;63889;50.596;8.690;2024-01-30T10:32:47;23.50;;;11.45;;
14169;SDS011;63889;50.596;8.690;2024-01-30T10:35:13;24.58;;;10.73;;
14169;SDS011;63889;50.596;8.690;2024-01-30T10:37:38;20.38;;;10.15;;
14169;SDS011;63889;50.596;8.690;2024-01-30T10:40:04;21.90;;;10.20;;
14169;SDS011;63889;50.596;8.690;2024-01-30T10:42:31;21.60;;;10.65;;
14169;SDS011;63889;50.596;8.690;2024-01-30T10:45:07;24.42;;;11.13;;
14169;SDS011;63889;50.596;8.690;2024-01-30T10:47:55;23.13;;;11.05;;
14169;SDS011;63889;50.596;8.690;2024-01-30T10:50:24;16.57;;;9.80;;
14169;SDS011;63889;50.596;8.690;2024-01-30T10:52:50;20.27;;;10.65;;
14169;SDS011;63889;50.596;8.690;2024-01-30T10:55:17;20.95;;;11.65;;
14169;SDS011;63889;50.596;8.690;2024-01-30T10:57:43;19.90;;;10.23;;
14169;SDS011;63889;50.596;8.690;2024-01-30T11:00:13;18.77;;;9.70;;
14169;SDS011;63889;50.596;8.690;2024-01-30T11:02:41;21.38;;;10.57;;
14169;SDS011;63889;50.596;8.690;2024-01-30T11:05:08;22.13;;;10.80;;
14169;SDS011;63889;50.596;8.690;2024-01-30T11:07:34;20.77;;;9.80;;
14169;SDS011;63889;50.596;8.690;2024-01-30T11:10:03;21.35;;;11.27;;
14169;SDS011;63889;50.596;8.690;2024-01-30T11:12:31;21.88;;;10.10;;
14169;SDS011;63889;50.596;8.690;2024-01-30T11:15:02;19.35;;;10.23;;
14169;SDS011;63889;50.596;8.690;2024-01-30T11:20:22;23.20;;;10.30;;
14169;SDS011;63889;50.596;8.690;2024-01-30T11:22:51;17.65;;;10.35;;
14169;SDS011;63889;50.596;8.690;2024-01-30T11:25:19;22.88;;;11.10;;
14169;SDS011;63889;50.596;8.690;2024-01-30T11:27:46;19.20;;;10.70;;
14169;SDS011;63889;50.596;8.690;2024-01-30T11:30:21;19.77;;;10.82;;
14169;SDS011;63889;50.596;8.690;2024-01-30T11:33:00;22.38;;;10.85;;
14169;SDS011;63889;50.596;8.690;2024-01-30T11:35:31;27.02;;;11.50;;
14169;SDS011;63889;50.596;8.690;2024-01-30T11:37:58;22.02;;;10.85;;
14169;SDS011;63889;50.596;8.690;2024-01-30T11:40:26;19.80;;;10.73;;
14169;SDS011;63889;50.596;8.690;2024-01-30T11:42:56;30.07;;;12.13;;
14169;SDS011;63889;50.596;8.690;2024-01-30T11:45:23;27.20;;;11.68;;
14169;SDS011;63889;50.596;8.690;2024-01-30T11:47:48;22.40;;;11.43;;
14169;SDS011;63889;50.596;8.690;2024-01-30T11:50:14;21.30;;;11.25;;
14169;SDS011;63889;50.596;8.690;2024-01-30T11:52:40;20.90;;;11.90;;
14169;SDS011;63889;50.596;8.690;2024-01-30T11:55:06;25.08;;;11.25;;
14169;SDS011;63889;50.596;8.690;2024-01-30T11:57:33;21.90;;;10.95;;
14169;SDS011;63889;50.596;8.690;2024-01-30T12:00:00;25.02;;;11.70;;
14169;SDS011;63889;50.596;8.690;2024-01-30T12:02:26;20.65;;;10.65;;
14169;SDS011;63889;50.596;8.690;2024-01-30T12:04:52;23.60;;;11.85;;
14169;SDS011;63889;50.596;8.690;2024-01-30T12:07:17;22.05;;;10.30;;
14169;SDS011;63889;50.596;8.690;2024-01-30T12:09:51;22.63;;;11.43;;
14169;SDS011;63889;50.596;8.690;2024-01-30T12:12:18;21.90;;;11.43;;
14169;SDS011;63889;50.596;8.690;2024-01-30T12:14:43;25.85;;;10.50;;
14169;SDS011;63889;50.596;8.690;2024-01-30T12:17:09;19.42;;;10.50;;
14169;SDS011;63889;50.596;8.690;2024-01-30T12:19:36;21.45;;;11.48;;
14169;SDS011;63889;50.596;8.690;2024-01-30T12:22:01;21.35;;;12.30;;
14169;SDS011;63889;50.596;8.690;2024-01-30T12:24:27;27.52;;;10.90;;
14169;SDS011;63889;50.596;8.690;2024-01-30T12:26:58;18.42;;;10.90;;
14169;SDS011;63889;50.596;8.690;2024-01-30T12:29:25;22.55;;;10.35;;
14169;SDS011;63889;50.596;8.690;2024-01-30T12:31:54;21.88;;;11.55;;
14169;SDS011;63889;50.596;8.690;2024-01-30T12:34:19;24.33;;;12.05;;
14169;SDS011;63889;50.596;8.690;2024-01-30T12:36:46;21.65;;;11.35;;
14169;SDS011;63889;50.596;8.690;2024-01-30T12:39:14;25.58;;;11.10;;
14169;SDS011;63889;50.596;8.690;2024-01-30T12:41:40;20.45;;;10.80;;
14169;SDS011;63889;50.596;8.690;2024-01-30T12:44:05;22.17;;;11.57;;
14169;SDS011;63889;50.596;8.690;2024-01-30T12:46:32;24.08;;;12.43;;
14169;SDS011;63889;50.596;8.690;2024-01-30T12:48:59;22.48;;;11.90;;
14169;SDS011;63889;50.596;8.690;2024-01-30T12:51:25;19.15;;;11.30;;
14169;SDS011;63889;50.596;8.690;2024-01-30T12:53:50;18.30;;;10.52;;
14169;SDS011;63889;50.596;8.690;2024-01-30T12:56:16;22.20;;;11.40;;
14169;SDS011;63889;50.596;8.690;2024-01-30T12:58:41;19.70;;;10.70;;
14169;SDS011;63889;50.596;8.690;2024-01-30T13:01:08;24.92;;;10.65;;
14169;SDS011;63889;50.596;8.690;2024-01-30T13:03:33;23.50;;;10.77;;
14169;SDS011;63889;50.596;8.690;2024-01-30T13:05:59;20.27;;;11.05;;
14169;SDS011;63889;50.596;8.690;2024-01-30T13:08:25;21.88;;;11.90;;
14169;SDS011;63889;50.596;8.690;2024-01-30T13:10:50;20.35;;;10.77;;
14169;SDS011;63889;50.596;8.690;2024-01-30T13:13:16;21.27;;;10.80;;
14169;SDS011;63889;50.596;8.690;2024-01-30T13:15:42;20.95;;;11.88;;
14169;SDS011;63889;50.596;8.690;2024-01-30T13:18:07;20.17;;;10.38;;
14169;SDS011;63889;50.596;8.690;2024-01-30T13:20:33;25.13;;;11.27;;
14169;SDS011;63889;50.596;8.690;2024-01-30T13:22:59;27.52;;;11.48;;
14169;SDS011;63889;50.596;8.690;2024-01-30T13:25:24;21.20;;;10.30;;
14169;SDS011;63889;50.596;8.690;2024-01-30T13:27:50;18.83;;;10.68;;
14169;SDS011;63889;50.596;8.690;2024-01-30T13:30:15;25.17;;;11.88;;
14169;SDS011;63889;50.596;8.690;2024-01-30T13:32:41;22.48;;;11.57;;
14169;SDS011;63889;50.596;8.690;2024-01-30T13:35:09;19.73;;;10.32;;
14169;SDS011;63889;50.596;8.690;2024-01-30T13:37:34;20.58;;;11.02;;
14169;SDS011;63889;50.596;8.690;2024-01-30T13:40:01;18.77;;;10.63;;
14169;SDS011;63889;50.596;8.690;2024-01-30T13:42:27;28.63;;;11.80;;
14169;SDS011;63889;50.596;8.690;2024-01-30T13:44:53;26.48;;;11.52;;
14169;SDS011;63889;50.596;8.690;2024-01-30T13:47:18;18.73;;;10.32;;
14169;SDS011;63889;50.596;8.690;2024-01-30T13:49:46;20.27;;;11.10;;
14169;SDS011;63889;50.596;8.690;2024-01-30T13:52:12;21.20;;;11.13;;
14169;SDS011;63889;50.596;8.690;2024-01-30T13:54:38;21.38;;;10.60;;
14169;SDS011;63889;50.596;8.690;2024-01-30T13:57:03;20.80;;;9.77;;
14169;SDS011;63889;50.596;8.690;2024-01-30T13:59:30;24.77;;;11.40;;
14169;SDS011;63889;50.596;8.690;2024-01-30T14:01:55;19.80;;;10.77;;
14169;SDS011;63889;50.596;8.690;2024-01-30T14:04:21;20.75;;;10.35;;
14169;SDS011;63889;50.596;8.690;2024-01-30T14:06:46;23.27;;;11.15;;
14169;SDS011;63889;50.596;8.690;2024-01-30T14:09:12;17.67;;;10.43;;
14169;SDS011;63889;50.596;8.690;2024-01-30T14:11:40;22.77;;;10.85;;
14169;SDS011;63889;50.596;8.690;2024-01-30T14:14:06;24.35;;;11.30;;
14169;SDS011;63889;50.596;8.690;2024-01-30T14:16:32;25.83;;;11.40;;
14169;SDS011;63889;50.596;8.690;2024-01-30T14:18:57;22.80;;;9.98;;
14169;SDS011;63889;50.596;8.690;2024-01-30T14:21:23;20.67;;;10.40;;
14169;SDS011;63889;50.596;8.690;2024-01-30T14:23:49;20.60;;;10.55;;
14169;SDS011;63889;50.596;8.690;2024-01-30T14:26:14;20.13;;;10.50;;
14169;SDS011;63889;50.596;8.690;2024-01-30T14:28:40;24.38;;;10.95;;